Time;durP1;ratioP1;P1;durP2;ratioP2;P2;SDS_P1;SDS_P2;PMS_P1;PMS_P2;Temp;Humidity;BMP_temperature;BMP_pressure;BME280_temperature;BME280_humidity;BME280_pressure;Samples;Min_cycle;Max_cycle;Signal;HPM_P1;HPM_P2
2021/10/15 00:01:19;;;;;;;19.75;10.50;;;7.80;99.90;;;;;;4958325;28;20046;-88
2021/10/15 00:03:47;;;;;;;18.40;9.50;;;7.80;99.90;;;;;;4973520;28;20035;-89
2021/10/15 00:06:12;;;;;;;18.15;9.35;;;7.70;99.90;;;;;;4941385;28;20038;-88
2021/10/15 00:08:38;;;;;;;27.00;9.88;;;7.70;99.90;;;;;;4941347;28;20449;-89
2021/10/15 00:11:04;;;;;;;18.58;8.80;;;7.70;99.90;;;;;;4925191;28;20043;-88
2021/10/15 00:13:30;;;;;;;18.60;8.95;;;7.60;99.90;;;;;;4925211;28;20035;-88
2021/10/15 00:15:55;;;;;;;19.90;9.70;;;7.70;99.90;;;;;;4941233;28;20026;-89
2021/10/15 00:18:21;;;;;;;20.48;9.82;;;7.60;99.90;;;;;;4941109;28;20499;-89
2021/10/15 00:20:47;;;;;;;16.33;8.88;;;7.60;99.90;;;;;;4941027;28;20407;-90
2021/10/15 00:23:13;;;;;;;20.73;9.48;;;7.60;99.90;;;;;;4925068;28;20045;-88
2021/10/15 00:25:39;;;;;;;26.05;9.05;;;7.50;99.90;;;;;;4922932;29;20031;-89
2021/10/15 00:28:05;;;;;;;30.77;9.57;;;7.50;99.90;;;;;;4922089;29;20397;-89
2021/10/15 00:30:30;;;;;;;16.08;9.25;;;7.50;99.90;;;;;;4924204;28;20034;-89
2021/10/15 00:32:56;;;;;;;36.28;9.10;;;7.40;99.90;;;;;;4940624;28;20452;-89
2021/10/15 00:35:22;;;;;;;18.88;9.07;;;7.40;99.90;;;;;;4924876;28;20035;-89
2021/10/15 00:37:48;;;;;;;19.48;9.75;;;7.40;99.90;;;;;;4940849;28;20402;-89
2021/10/15 00:40:16;;;;;;;16.40;8.63;;;7.40;99.90;;;;;;4940217;28;20121;-89
2021/10/15 00:42:42;;;;;;;15.18;8.73;;;7.40;99.90;;;;;;4956146;28;20041;-89
2021/10/15 00:45:08;;;;;;;21.40;9.25;;;7.40;99.90;;;;;;4924638;28;20043;-89
2021/10/15 00:47:34;;;;;;;15.15;8.60;;;7.40;99.90;;;;;;4940526;28;20042;-89
2021/10/15 00:49:59;;;;;;;18.33;9.27;;;7.30;99.90;;;;;;4924575;28;20031;-88
2021/10/15 00:52:27;;;;;;;16.08;8.50;;;7.40;99.90;;;;;;4940054;28;20041;-89
2021/10/15 00:54:53;;;;;;;18.48;10.18;;;7.30;99.90;;;;;;4956211;28;20128;-90
2021/10/15 00:57:20;;;;;;;16.88;8.82;;;7.30;99.90;;;;;;4956060;28;20058;-89
2021/10/15 00:59:46;;;;;;;19.40;8.55;;;7.30;99.90;;;;;;4939729;28;20041;-88
2021/10/15 01:02:12;;;;;;;17.95;9.30;;;7.30;99.90;;;;;;4939821;28;20498;-91
2021/10/15 01:04:38;;;;;;;17.10;8.65;;;7.20;99.90;;;;;;4940000;28;20383;-91
2021/10/15 01:07:04;;;;;;;15.60;8.23;;;7.20;99.90;;;;;;4940128;28;20500;-89
2021/10/15 01:09:31;;;;;;;22.52;9.32;;;7.20;99.90;;;;;;4927513;28;20089;-90
2021/10/15 01:11:59;;;;;;;15.23;8.15;;;7.20;99.90;;;;;;4940930;28;20034;-89
2021/10/15 01:14:26;;;;;;;17.63;9.60;;;7.20;99.90;;;;;;4939975;28;20532;-89
2021/10/15 01:16:52;;;;;;;18.05;9.18;;;7.20;99.90;;;;;;4945256;28;20057;-88
2021/10/15 01:19:18;;;;;;;20.52;8.70;;;7.20;99.90;;;;;;4956357;28;20074;-89
2021/10/15 01:21:43;;;;;;;28.05;8.77;;;7.10;99.90;;;;;;4956348;28;20038;-89
2021/10/15 01:24:09;;;;;;;16.15;9.07;;;7.20;99.90;;;;;;4951451;28;20042;-89
2021/10/15 01:26:35;;;;;;;16.10;9.32;;;7.20;99.90;;;;;;4956016;28;20512;-90
2021/10/15 01:29:01;;;;;;;21.83;9.18;;;7.10;99.90;;;;;;4940001;28;20034;-89
2021/10/15 01:31:27;;;;;;;24.52;9.43;;;7.10;99.90;;;;;;4956180;28;20031;-89
2021/10/15 01:33:58;;;;;;;20.73;9.25;;;7.10;99.90;;;;;;4955959;28;20107;-89
2021/10/15 01:36:24;;;;;;;22.40;9.50;;;7.10;99.90;;;;;;4940256;28;20500;-89
2021/10/15 01:38:50;;;;;;;28.75;9.07;;;7.10;99.90;;;;;;4955739;28;20026;-89
2021/10/15 01:41:16;;;;;;;22.70;9.20;;;7.10;99.90;;;;;;4962451;28;20027;-89
2021/10/15 01:43:42;;;;;;;16.20;9.57;;;7.10;99.90;;;;;;4940555;29;20039;-90
2021/10/15 01:46:07;;;;;;;17.67;9.23;;;7.10;99.90;;;;;;4930690;28;20035;-89
2021/10/15 01:48:33;;;;;;;18.65;8.85;;;7.10;99.90;;;;;;4959604;28;20085;-90
2021/10/15 01:50:59;;;;;;;15.88;8.73;;;7.00;99.90;;;;;;4959400;28;20082;-90
2021/10/15 01:53:26;;;;;;;18.30;9.55;;;7.00;99.90;;;;;;4943953;28;20102;-89
2021/10/15 01:55:52;;;;;;;15.45;8.75;;;7.00;99.90;;;;;;4940296;29;20066;-90
2021/10/15 01:58:18;;;;;;;20.13;9.63;;;7.00;99.90;;;;;;4948262;28;20089;-89
2021/10/15 02:00:44;;;;;;;18.63;9.65;;;7.00;99.90;;;;;;4955961;29;20039;-90
2021/10/15 02:03:14;;;;;;;18.83;8.82;;;7.00;99.90;;;;;;4960757;28;20035;-91
2021/10/15 02:05:39;;;;;;;19.73;8.75;;;7.00;99.90;;;;;;4944431;28;20038;-91
2021/10/15 02:08:06;;;;;;;14.77;7.85;;;7.00;99.90;;;;;;4943398;28;20031;-89
2021/10/15 02:10:32;;;;;;;18.05;9.25;;;7.00;99.90;;;;;;4943341;28;20084;-89
2021/10/15 02:12:58;;;;;;;15.95;8.98;;;7.00;99.90;;;;;;4927049;28;20493;-90
2021/10/15 02:15:24;;;;;;;15.65;8.70;;;7.00;99.90;;;;;;4947156;28;20037;-90
2021/10/15 02:17:50;;;;;;;16.23;9.25;;;7.00;99.90;;;;;;4939722;29;20178;-89
2021/10/15 02:20:18;;;;;;;16.65;8.40;;;7.00;99.90;;;;;;4940182;29;20042;-90
2021/10/15 02:22:47;;;;;;;14.43;8.75;;;7.00;99.90;;;;;;4924187;29;20174;-90
2021/10/15 02:25:15;;;;;;;16.10;8.93;;;7.00;99.90;;;;;;4923905;29;20502;-89
2021/10/15 02:27:42;;;;;;;16.02;7.93;;;7.00;99.90;;;;;;4940001;29;20042;-89
2021/10/15 02:30:10;;;;;;;17.73;9.38;;;6.90;99.90;;;;;;4928714;28;20075;-89
2021/10/15 02:32:36;;;;;;;16.25;8.25;;;6.90;99.90;;;;;;4950806;28;20054;-89
2021/10/15 02:35:03;;;;;;;19.15;8.35;;;7.00;99.90;;;;;;4944703;28;20121;-88
2021/10/15 02:37:29;;;;;;;15.55;7.90;;;6.90;99.90;;;;;;4942986;28;20105;-89
2021/10/15 02:39:54;;;;;;;16.02;7.90;;;6.90;99.90;;;;;;4942530;28;20458;-89
2021/10/15 02:42:21;;;;;;;14.68;8.57;;;6.90;99.90;;;;;;4931892;28;20039;-88
2021/10/15 02:44:47;;;;;;;16.67;8.68;;;6.90;99.90;;;;;;4927109;28;20041;-89
2021/10/15 02:47:13;;;;;;;16.73;8.70;;;6.90;99.90;;;;;;4942513;28;20407;-89
2021/10/15 02:49:38;;;;;;;15.75;7.90;;;6.90;99.90;;;;;;4942551;28;20647;-90
2021/10/15 02:52:04;;;;;;;17.83;9.13;;;6.90;99.90;;;;;;4949451;28;20059;-90
2021/10/15 02:54:30;;;;;;;15.43;8.85;;;6.90;99.90;;;;;;4958202;28;20066;-89
2021/10/15 02:56:56;;;;;;;15.57;7.63;;;6.90;99.90;;;;;;4958633;28;20077;-90
2021/10/15 02:59:22;;;;;;;18.50;8.45;;;6.90;99.90;;;;;;4942410;28;20035;-91
2021/10/15 03:01:48;;;;;;;15.55;7.13;;;6.80;99.90;;;;;;4942526;28;20512;-90
2021/10/15 03:04:14;;;;;;;16.48;8.85;;;6.80;99.90;;;;;;4942303;28;20035;-90
2021/10/15 03:06:39;;;;;;;18.95;8.55;;;6.80;99.90;;;;;;4926502;28;20489;-90
2021/10/15 03:09:06;;;;;;;17.50;8.27;;;6.80;99.90;;;;;;4942228;28;20030;-89
2021/10/15 03:11:32;;;;;;;13.00;7.18;;;6.80;99.90;;;;;;4938609;29;20039;-90
2021/10/15 03:13:58;;;;;;;16.23;8.00;;;6.80;99.90;;;;;;4923096;29;20042;-90
2021/10/15 03:16:23;;;;;;;15.55;8.40;;;6.80;99.90;;;;;;4934691;29;20027;-90
2021/10/15 03:18:49;;;;;;;15.77;8.27;;;6.80;99.90;;;;;;4938664;29;20625;-90
2021/10/15 03:21:15;;;;;;;16.20;8.48;;;6.80;99.90;;;;;;4921610;28;20058;-88
2021/10/15 03:23:41;;;;;;;16.42;9.68;;;6.80;99.90;;;;;;4951771;28;20181;-90
2021/10/15 03:26:07;;;;;;;15.43;8.02;;;6.80;99.90;;;;;;4926198;28;20133;-90
2021/10/15 03:28:32;;;;;;;21.20;9.30;;;6.70;99.90;;;;;;4926039;28;20121;-90
2021/10/15 03:30:58;;;;;;;16.63;8.15;;;6.70;99.90;;;;;;4930186;29;20041;-90
2021/10/15 03:33:24;;;;;;;15.20;8.88;;;6.70;99.90;;;;;;4953561;28;20031;-89
2021/10/15 03:35:50;;;;;;;17.40;9.25;;;6.70;99.90;;;;;;4942231;28;20039;-90
2021/10/15 03:38:15;;;;;;;18.35;9.52;;;6.70;99.90;;;;;;4941628;28;20018;-91
2021/10/15 03:40:42;;;;;;;21.17;8.57;;;6.70;99.90;;;;;;4941514;28;20038;-90
2021/10/15 03:43:07;;;;;;;15.90;8.40;;;6.70;99.90;;;;;;4957416;28;20437;-89
2021/10/15 03:45:33;;;;;;;21.85;9.00;;;6.70;99.90;;;;;;4941970;28;20034;-89
2021/10/15 03:47:59;;;;;;;13.98;8.73;;;6.70;99.90;;;;;;4938607;29;20046;-90
2021/10/15 03:50:25;;;;;;;17.65;8.70;;;6.70;99.90;;;;;;4926500;29;20042;-90
2021/10/15 03:52:58;;;;;;;14.50;8.57;;;6.60;99.90;;;;;;4932905;28;20118;-89
2021/10/15 03:55:26;;;;;;;16.60;7.60;;;6.60;99.90;;;;;;4963237;28;20039;-89
2021/10/15 03:57:52;;;;;;;16.77;8.15;;;6.60;99.90;;;;;;4940887;28;20111;-90
2021/10/15 04:00:18;;;;;;;15.88;8.57;;;6.50;99.90;;;;;;4938117;29;20480;-89
2021/10/15 04:02:46;;;;;;;16.17;8.50;;;6.50;99.90;;;;;;4956223;28;20074;-90
2021/10/15 04:05:13;;;;;;;16.38;8.25;;;6.50;99.90;;;;;;4941245;28;20043;-89
2021/10/15 04:07:39;;;;;;;16.55;8.45;;;6.40;99.90;;;;;;4937545;29;20118;-90
2021/10/15 04:10:07;;;;;;;18.42;9.05;;;6.40;99.90;;;;;;4937716;29;20046;-89
2021/10/15 04:12:33;;;;;;;16.75;8.38;;;6.40;99.90;;;;;;4938089;29;20038;-90
2021/10/15 04:14:59;;;;;;;20.67;9.05;;;6.40;99.90;;;;;;4941075;28;20034;-89
2021/10/15 04:17:26;;;;;;;14.27;8.27;;;6.40;99.90;;;;;;4940926;28;20426;-89
2021/10/15 04:19:51;;;;;;;14.90;8.70;;;6.30;99.90;;;;;;4956817;28;20019;-89
2021/10/15 04:22:17;;;;;;;17.45;9.05;;;6.30;99.90;;;;;;4941049;28;20031;-89
2021/10/15 04:24:43;;;;;;;14.93;7.93;;;6.30;99.90;;;;;;4956946;28;20019;-90
2021/10/15 04:27:09;;;;;;;14.45;7.75;;;6.20;99.90;;;;;;4945618;28;20634;-91
2021/10/15 04:29:34;;;;;;;16.75;8.73;;;6.20;99.90;;;;;;4940472;28;20023;-90
2021/10/15 04:32:01;;;;;;;19.50;8.77;;;6.10;99.90;;;;;;4937779;29;20031;-91
2021/10/15 04:34:27;;;;;;;15.45;7.68;;;6.10;99.90;;;;;;4956432;28;20030;-90
2021/10/15 04:36:53;;;;;;;15.20;7.82;;;6.00;99.90;;;;;;4940155;28;20023;-90
2021/10/15 04:39:19;;;;;;;15.88;7.90;;;6.00;99.90;;;;;;4940577;28;20034;-90
2021/10/15 04:41:45;;;;;;;17.95;8.95;;;6.00;99.90;;;;;;4947495;28;20038;-89
2021/10/15 04:44:11;;;;;;;14.98;7.93;;;6.00;99.90;;;;;;4940633;28;20037;-90
2021/10/15 04:46:37;;;;;;;14.82;7.78;;;6.00;99.90;;;;;;4956397;28;20039;-90
2021/10/15 04:49:03;;;;;;;18.80;8.85;;;6.00;99.90;;;;;;4953265;29;20152;-90
2021/10/15 04:51:29;;;;;;;14.15;7.80;;;6.00;99.90;;;;;;4956196;28;20038;-91
2021/10/15 04:53:55;;;;;;;14.85;8.27;;;6.00;99.90;;;;;;4940337;28;20043;-91
2021/10/15 04:56:21;;;;;;;16.77;8.07;;;6.00;99.90;;;;;;4940068;28;20477;-90
2021/10/15 04:58:52;;;;;;;17.45;8.93;;;5.90;99.90;;;;;;4940377;28;20790;-90
2021/10/15 05:01:18;;;;;;;19.27;7.90;;;5.90;99.90;;;;;;4940415;28;20038;-90
2021/10/15 05:03:43;;;;;;;13.38;7.18;;;5.90;99.90;;;;;;4940083;28;20041;-90
2021/10/15 05:06:09;;;;;;;13.98;8.45;;;5.90;99.90;;;;;;4939664;28;20543;-90
2021/10/15 05:11:22;;;;;;;15.55;7.93;;;5.80;99.90;;;;;;4956300;28;20569;-90
2021/10/15 05:13:47;;;;;;;14.13;7.88;;;5.80;99.90;;;;;;4955975;28;20121;-90
2021/10/15 05:16:13;;;;;;;14.07;7.22;;;5.80;99.90;;;;;;4920854;29;20398;-90
2021/10/15 05:18:39;;;;;;;13.88;7.85;;;5.70;99.90;;;;;;4936617;29;20410;-90
2021/10/15 05:21:05;;;;;;;10.82;6.85;;;5.70;99.90;;;;;;4939744;28;20133;-90
2021/10/15 05:23:30;;;;;;;13.52;7.13;;;5.70;99.90;;;;;;4940265;28;20031;-90
2021/10/15 05:25:56;;;;;;;16.63;7.10;;;5.70;99.90;;;;;;4931851;28;20066;-90
2021/10/15 05:28:22;;;;;;;11.32;6.55;;;5.70;99.90;;;;;;4948411;28;20150;-89
2021/10/15 05:30:48;;;;;;;12.70;6.65;;;5.70;99.90;;;;;;4955720;28;20396;-90
2021/10/15 05:33:13;;;;;;;11.23;6.45;;;5.70;99.90;;;;;;4955776;28;20038;-90
2021/10/15 05:35:39;;;;;;;11.90;6.00;;;5.70;99.90;;;;;;4955701;28;20027;-89
2021/10/15 05:38:05;;;;;;;11.40;6.32;;;5.80;99.90;;;;;;4920456;29;20031;-90
2021/10/15 05:40:31;;;;;;;12.38;6.55;;;5.80;99.90;;;;;;4952159;28;20031;-89
2021/10/15 05:42:56;;;;;;;14.10;7.15;;;5.80;99.90;;;;;;4939746;28;20485;-90
2021/10/15 05:45:25;;;;;;;12.60;6.15;;;5.80;99.90;;;;;;4955547;28;20031;-89
2021/10/15 05:47:51;;;;;;;12.20;6.65;;;5.80;99.90;;;;;;4939458;28;20134;-90
2021/10/15 05:50:21;;;;;;;10.80;6.43;;;5.80;99.90;;;;;;4941938;28;20034;-90
2021/10/15 05:52:49;;;;;;;11.60;5.95;;;5.80;99.90;;;;;;4939623;28;20031;-90
2021/10/15 06:00:28;;;;;;;11.50;6.55;;;5.90;99.90;;;;;;4971854;28;20552;-90
2021/10/15 06:02:55;;;;;;;11.10;6.40;;;5.90;99.90;;;;;;4936347;29;20035;-90
2021/10/15 06:09:49;;;;;;;14.23;6.32;;;6.00;99.90;;;;;;4956576;28;20053;-91
2021/10/15 06:16:14;;;;;;;12.10;7.35;;;6.10;99.90;;;;;;4955468;28;20034;-91
2021/10/15 06:18:41;;;;;;;15.70;7.60;;;6.20;99.90;;;;;;4955618;28;20089;-90
2021/10/15 06:21:07;;;;;;;20.00;8.93;;;6.20;99.90;;;;;;4955386;28;20027;-91
2021/10/15 06:23:33;;;;;;;15.90;6.90;;;6.20;99.90;;;;;;4955439;28;20033;-90
2021/10/15 06:26:02;;;;;;;16.60;7.55;;;6.30;99.90;;;;;;4955342;28;20031;-90
2021/10/15 06:28:29;;;;;;;13.07;6.95;;;6.30;99.90;;;;;;4956601;28;20081;-90
2021/10/15 06:30:54;;;;;;;13.48;7.32;;;6.30;99.90;;;;;;4958808;28;20141;-90
2021/10/15 06:33:20;;;;;;;13.60;7.53;;;6.40;99.90;;;;;;4959076;28;20110;-91
2021/10/15 06:35:46;;;;;;;14.85;7.68;;;6.40;99.90;;;;;;4957196;28;20019;-90
2021/10/15 06:38:12;;;;;;;12.32;7.30;;;6.50;99.90;;;;;;4942750;28;20085;-91
2021/10/15 06:40:38;;;;;;;15.50;7.20;;;6.50;99.90;;;;;;4942523;28;20037;-91
2021/10/15 06:43:09;;;;;;;15.60;6.93;;;6.60;99.90;;;;;;4942961;28;20031;-90
2021/10/15 06:45:36;;;;;;;13.82;7.57;;;6.60;99.90;;;;;;4942755;28;20038;-92
2021/10/15 06:48:02;;;;;;;13.35;6.93;;;6.70;99.90;;;;;;4927058;28;20035;-90
2021/10/15 06:50:28;;;;;;;9.88;6.55;;;6.90;99.90;;;;;;4958600;28;20038;-91
2021/10/15 06:52:54;;;;;;;15.25;7.78;;;7.10;99.90;;;;;;4942653;28;20031;-90
2021/10/15 06:55:22;;;;;;;15.05;7.60;;;7.20;99.90;;;;;;4942380;28;20026;-91
2021/10/15 06:57:49;;;;;;;15.05;7.75;;;7.30;99.90;;;;;;4958484;28;20026;-90
2021/10/15 07:00:15;;;;;;;15.68;8.23;;;7.50;99.90;;;;;;4942362;28;20043;-90
2021/10/15 07:02:42;;;;;;;20.10;8.63;;;7.50;99.90;;;;;;4942990;28;20030;-90
2021/10/15 07:05:09;;;;;;;13.60;7.78;;;7.50;99.90;;;;;;4958676;28;20031;-91
2021/10/15 07:07:35;;;;;;;15.70;7.72;;;7.60;99.90;;;;;;4942258;28;20548;-91
2021/10/15 07:10:02;;;;;;;12.70;8.15;;;7.70;99.90;;;;;;4958342;28;20433;-89
2021/10/15 07:12:32;;;;;;;14.25;8.02;;;7.80;99.90;;;;;;4954511;28;20131;-91
2021/10/15 07:14:58;;;;;;;13.30;6.85;;;8.00;99.90;;;;;;4958000;28;20035;-89
2021/10/15 07:17:24;;;;;;;14.35;7.30;;;8.10;99.90;;;;;;4925583;28;20045;-89
2021/10/15 07:19:49;;;;;;;9.63;6.15;;;8.20;99.90;;;;;;4926752;28;20038;-89
2021/10/15 07:22:15;;;;;;;10.50;6.25;;;8.30;99.90;;;;;;4942220;28;20023;-90
2021/10/15 07:24:41;;;;;;;12.50;6.88;;;8.40;99.90;;;;;;4941988;28;20035;-89
2021/10/15 07:27:07;;;;;;;10.88;6.40;;;8.50;99.90;;;;;;4938700;29;20034;-90
2021/10/15 07:29:33;;;;;;;9.77;6.13;;;8.60;99.90;;;;;;4931108;28;20122;-90
2021/10/15 07:32:00;;;;;;;11.68;6.22;;;8.70;99.90;;;;;;4938831;29;20595;-89
2021/10/15 07:34:26;;;;;;;10.30;5.38;;;8.70;99.90;;;;;;4954711;29;20031;-89
2021/10/15 07:36:52;;;;;;;8.60;5.60;;;8.70;99.90;;;;;;4941740;28;20038;-89
2021/10/15 07:39:18;;;;;;;7.47;4.82;;;8.70;99.90;;;;;;4940571;28;20035;-89
2021/10/15 07:41:45;;;;;;;7.45;5.43;;;8.70;99.90;;;;;;4942244;28;20034;-89
2021/10/15 07:44:14;;;;;;;6.05;4.13;;;8.60;99.90;;;;;;4926065;28;20046;-89
2021/10/15 07:46:41;;;;;;;7.05;4.82;;;8.50;99.90;;;;;;4922325;29;20027;-89
2021/10/15 07:49:08;;;;;;;7.88;4.57;;;8.50;99.90;;;;;;4915055;28;20097;-88
2021/10/15 07:51:35;;;;;;;6.20;4.20;;;8.50;99.90;;;;;;4941585;28;20532;-89
2021/10/15 07:54:01;;;;;;;5.85;4.18;;;8.50;99.90;;;;;;4941525;28;20133;-89
2021/10/15 07:56:27;;;;;;;5.35;3.58;;;8.50;99.90;;;;;;4941007;28;20058;-89
2021/10/15 07:58:54;;;;;;;7.53;4.40;;;8.50;99.90;;;;;;4957411;28;20054;-89
2021/10/15 08:01:20;;;;;;;9.23;4.53;;;8.60;99.90;;;;;;4943919;28;20043;-89
2021/10/15 08:03:45;;;;;;;6.43;4.05;;;8.60;99.90;;;;;;4941426;28;20035;-89
2021/10/15 08:06:11;;;;;;;6.65;4.30;;;8.70;99.90;;;;;;4945238;28;20130;-89
2021/10/15 08:08:38;;;;;;;6.53;3.72;;;8.80;99.90;;;;;;4925411;28;20082;-89
2021/10/15 08:11:04;;;;;;;6.88;4.38;;;8.90;99.90;;;;;;4957355;28;20106;-89
2021/10/15 08:13:31;;;;;;;5.78;4.03;;;9.00;99.90;;;;;;4938150;29;20065;-90
2021/10/15 08:15:57;;;;;;;6.13;4.20;;;9.10;99.90;;;;;;4951306;28;20089;-90
2021/10/15 08:18:24;;;;;;;7.50;4.25;;;9.20;99.90;;;;;;4949320;28;20374;-89
2021/10/15 08:20:57;;;;;;;7.65;4.75;;;9.30;99.90;;;;;;4935960;29;20035;-89
2021/10/15 08:23:28;;;;;;;8.27;5.10;;;9.40;99.90;;;;;;4941254;28;20093;-89
2021/10/15 08:25:55;;;;;;;6.53;4.70;;;9.40;99.90;;;;;;4943813;28;20039;-89
2021/10/15 08:28:21;;;;;;;8.57;4.95;;;9.50;99.90;;;;;;4922078;29;20486;-90
2021/10/15 08:30:47;;;;;;;7.65;4.20;;;9.60;99.90;;;;;;4947897;28;20026;-89
2021/10/15 08:33:13;;;;;;;12.60;5.20;;;9.60;99.90;;;;;;4941309;28;20039;-89
2021/10/15 08:35:39;;;;;;;11.75;5.05;;;9.80;99.90;;;;;;4940995;28;20022;-89
2021/10/15 08:38:05;;;;;;;10.98;5.05;;;9.80;99.90;;;;;;4941386;28;20540;-89
2021/10/15 08:40:31;;;;;;;6.35;4.43;;;9.90;99.90;;;;;;4937785;29;20039;-89
2021/10/15 08:42:57;;;;;;;7.18;4.57;;;10.00;99.90;;;;;;4937951;29;20138;-89
2021/10/15 08:45:25;;;;;;;7.25;4.65;;;10.10;99.90;;;;;;4938344;29;20035;-89
2021/10/15 08:47:51;;;;;;;6.25;4.00;;;10.10;99.90;;;;;;4938385;29;20133;-89
2021/10/15 08:50:17;;;;;;;5.25;3.63;;;10.30;99.90;;;;;;4937604;28;20031;-90
2021/10/15 08:52:43;;;;;;;8.15;4.47;;;10.20;99.90;;;;;;4938066;29;20055;-89
2021/10/15 08:55:09;;;;;;;9.77;4.05;;;10.30;99.90;;;;;;4938839;29;20043;-89
2021/10/15 08:57:35;;;;;;;5.60;3.95;;;10.30;99.90;;;;;;4941703;28;20122;-89
2021/10/15 09:00:01;;;;;;;4.68;3.72;;;10.30;99.90;;;;;;4940904;29;20031;-89
2021/10/15 09:02:27;;;;;;;4.70;3.60;;;10.30;99.90;;;;;;4922457;29;20098;-89
2021/10/15 09:04:57;;;;;;;7.13;4.00;;;10.40;99.90;;;;;;4941185;28;20071;-89
2021/10/15 09:07:25;;;;;;;6.90;3.58;;;10.50;99.90;;;;;;4941807;28;20121;-89
2021/10/15 09:10:10;;;;;;;5.85;3.70;;;10.50;99.90;;;;;;4947611;28;20038;-89
2021/10/15 09:12:56;;;;;;;4.78;3.42;;;10.50;99.90;;;;;;4973337;28;20604;-89
2021/10/15 09:15:30;;;;;;;4.28;3.35;;;10.60;99.90;;;;;;4942204;28;20508;-89
2021/10/15 09:17:57;;;;;;;4.65;3.30;;;10.60;99.90;;;;;;4941694;28;20038;-89
2021/10/15 09:20:35;;;;;;;7.65;4.15;;;10.60;99.90;;;;;;4943272;28;20102;-89
2021/10/15 09:23:01;;;;;;;4.85;3.33;;;10.70;99.90;;;;;;4940981;28;20042;-89
2021/10/15 09:25:32;;;;;;;6.00;3.88;;;10.70;99.90;;;;;;4941255;28;20035;-89
2021/10/15 09:27:58;;;;;;;8.13;4.60;;;10.80;99.90;;;;;;4938395;28;20083;-89
2021/10/15 09:30:28;;;;;;;6.95;3.95;;;10.90;99.90;;;;;;4941001;28;20023;-91
2021/10/15 09:32:59;;;;;;;6.88;4.38;;;10.90;99.90;;;;;;4941285;28;20065;-90
2021/10/15 09:35:27;;;;;;;6.63;4.28;;;11.00;99.90;;;;;;4935750;28;20063;-89
2021/10/15 09:38:12;;;;;;;5.85;4.18;;;11.10;99.90;;;;;;4936381;29;20561;-89
2021/10/15 09:40:42;;;;;;;5.85;3.80;;;11.20;99.90;;;;;;4943165;28;20126;-89
2021/10/15 09:43:10;;;;;;;7.28;3.85;;;11.20;99.90;;;;;;4925908;28;20035;-90
2021/10/15 09:45:58;;;;;;;6.93;3.72;;;11.20;99.90;;;;;;4951707;28;20034;-88
2021/10/15 09:48:36;;;;;;;5.25;3.42;;;11.10;99.90;;;;;;4937846;28;20050;-89
2021/10/15 09:51:16;;;;;;;5.63;3.85;;;11.10;99.90;;;;;;4941405;28;20041;-89
2021/10/15 09:54:12;;;;;;;4.97;3.92;;;11.00;99.90;;;;;;4939748;28;20085;-90
2021/10/15 09:56:54;;;;;;;5.15;3.22;;;11.00;99.90;;;;;;4971864;28;20125;-90
2021/10/15 09:59:20;;;;;;;3.72;2.80;;;11.00;99.90;;;;;;4931277;28;20446;-88
2021/10/15 10:01:47;;;;;;;9.65;4.32;;;11.10;99.90;;;;;;4955559;28;20038;-88
2021/10/15 10:04:13;;;;;;;3.95;3.28;;;11.20;99.90;;;;;;4959087;28;20052;-88
2021/10/15 10:06:39;;;;;;;5.15;3.47;;;11.20;99.90;;;;;;4956688;28;20030;-89
2021/10/15 10:09:06;;;;;;;5.55;3.45;;;11.20;99.90;;;;;;4957971;28;20446;-88
2021/10/15 10:11:32;;;;;;;5.07;3.28;;;11.30;99.90;;;;;;4939391;28;20135;-89
2021/10/15 10:13:58;;;;;;;5.35;3.53;;;11.30;99.90;;;;;;4941426;28;20125;-88
2021/10/15 10:16:28;;;;;;;4.55;3.03;;;11.40;99.90;;;;;;4926048;28;20501;-89
2021/10/15 10:18:58;;;;;;;7.00;3.70;;;11.40;99.90;;;;;;4966926;28;20023;-88
2021/10/15 10:21:29;;;;;;;7.28;3.50;;;11.50;99.90;;;;;;4954716;28;20061;-87
2021/10/15 10:24:04;;;;;;;5.10;3.40;;;11.60;99.90;;;;;;4974031;28;20039;-88
2021/10/15 10:26:45;;;;;;;5.78;3.42;;;11.60;99.90;;;;;;4972344;28;20102;-87
2021/10/15 10:29:11;;;;;;;6.07;3.78;;;11.70;99.90;;;;;;4952161;28;20035;-87
2021/10/15 10:31:39;;;;;;;7.40;3.88;;;11.70;99.90;;;;;;4957444;28;21720;-88
2021/10/15 10:34:07;;;;;;;6.40;3.55;;;11.60;99.90;;;;;;4958137;28;20389;-87
2021/10/15 10:36:35;;;;;;;4.90;3.30;;;11.60;99.90;;;;;;4940001;28;20501;-87
2021/10/15 10:39:26;;;;;;;4.10;2.97;;;11.70;99.90;;;;;;4941221;28;20034;-87
2021/10/15 10:42:05;;;;;;;4.93;2.75;;;11.70;99.90;;;;;;4951956;28;20037;-88
2021/10/15 10:44:34;;;;;;;3.95;3.10;;;11.70;99.90;;;;;;4956494;28;20026;-88
2021/10/15 10:47:14;;;;;;;6.18;3.63;;;11.70;99.90;;;;;;4956212;28;20038;-88
2021/10/15 10:50:02;;;;;;;4.85;3.20;;;11.70;99.90;;;;;;4934389;28;20031;-88
2021/10/15 10:52:29;;;;;;;4.97;3.20;;;11.80;99.90;;;;;;4931456;28;20047;-87
2021/10/15 10:54:55;;;;;;;4.57;2.72;;;11.70;99.90;;;;;;4940145;28;20038;-89
2021/10/15 10:57:29;;;;;;;5.55;3.10;;;11.70;99.90;;;;;;4940117;28;20031;-88
2021/10/15 11:00:22;;;;;;;5.25;2.97;;;11.60;99.90;;;;;;4941014;28;20051;-87
2021/10/15 11:02:53;;;;;;;3.92;2.88;;;11.50;99.90;;;;;;4967360;28;20053;-88
2021/10/15 11:05:37;;;;;;;9.55;3.15;;;11.40;99.90;;;;;;4941481;28;20050;-89
2021/10/15 11:08:24;;;;;;;4.28;2.83;;;11.40;99.90;;;;;;4924163;28;20034;-88
2021/10/15 11:11:21;;;;;;;4.35;3.05;;;11.30;99.90;;;;;;4956230;28;20088;-89
2021/10/15 11:13:48;;;;;;;7.75;3.13;;;11.30;99.90;;;;;;4924915;28;20043;-88
2021/10/15 11:16:27;;;;;;;5.07;3.25;;;11.20;99.90;;;;;;4956348;28;20035;-88
2021/10/15 11:18:54;;;;;;;4.50;3.15;;;11.10;99.90;;;;;;4938844;28;20023;-87
2021/10/15 11:21:20;;;;;;;4.70;3.25;;;11.10;99.90;;;;;;4943258;28;20414;-89
2021/10/15 11:23:47;;;;;;;4.00;3.28;;;11.10;99.90;;;;;;4941099;28;20035;-88
2021/10/15 11:26:13;;;;;;;5.93;3.72;;;11.10;99.90;;;;;;4938145;28;20122;-87
2021/10/15 11:28:39;;;;;;;6.32;3.40;;;11.10;99.90;;;;;;4967927;28;20077;-87
2021/10/15 11:31:11;;;;;;;3.70;3.13;;;11.00;99.90;;;;;;4943785;28;20026;-88
2021/10/15 11:33:38;;;;;;;7.03;3.95;;;11.00;99.90;;;;;;4941648;28;20041;-88
2021/10/15 11:36:06;;;;;;;10.40;4.82;;;11.00;99.90;;;;;;4950596;28;20019;-89
2021/10/15 11:38:32;;;;;;;4.70;3.40;;;11.00;99.90;;;;;;4948712;28;20743;-89
2021/10/15 11:41:06;;;;;;;4.90;3.53;;;11.00;99.90;;;;;;4941041;28;20126;-88
2021/10/15 11:43:34;;;;;;;4.25;3.22;;;11.00;99.90;;;;;;4950625;28;20088;-89
2021/10/15 11:46:01;;;;;;;5.93;3.80;;;11.00;99.90;;;;;;4941588;28;20030;-88
2021/10/15 11:48:34;;;;;;;5.22;3.67;;;11.10;99.90;;;;;;4964603;28;20498;-89
2021/10/15 11:51:07;;;;;;;4.40;3.45;;;11.00;99.90;;;;;;4941650;28;20046;-88
2021/10/15 11:53:41;;;;;;;5.60;3.55;;;11.00;99.90;;;;;;4953968;28;20092;-90
2021/10/15 11:56:09;;;;;;;5.20;3.58;;;11.00;99.90;;;;;;4939938;29;20043;-89
2021/10/15 11:58:38;;;;;;;4.22;3.10;;;11.00;99.90;;;;;;4934990;28;20035;-89
2021/10/15 12:01:19;;;;;;;4.75;2.90;;;11.10;99.90;;;;;;4941103;29;20039;-90
2021/10/15 12:03:55;;;;;;;5.38;2.90;;;11.20;99.90;;;;;;4939466;28;20039;-89
2021/10/15 12:06:25;;;;;;;3.30;2.30;;;11.20;99.90;;;;;;4936312;28;20045;-90
2021/10/15 12:08:56;;;;;;;4.22;2.50;;;11.20;99.90;;;;;;4955813;28;20027;-89
2021/10/15 12:11:42;;;;;;;3.70;2.17;;;11.30;99.90;;;;;;4949613;29;20486;-90
2021/10/15 12:14:09;;;;;;;;;;;11.30;99.90;;;;;;4949226;28;20038;-89
2021/10/15 12:16:58;;;;;;;3.10;2.45;;;11.30;99.90;;;;;;4933046;28;20385;-90
2021/10/15 12:19:26;;;;;;;4.15;3.10;;;11.50;99.90;;;;;;4956369;28;20461;-89
2021/10/15 12:22:11;;;;;;;3.67;2.15;;;11.60;99.90;;;;;;4940611;28;20125;-90
2021/10/15 12:24:44;;;;;;;3.97;2.72;;;11.60;99.90;;;;;;4924223;28;20588;-90
2021/10/15 12:27:16;;;;;;;4.53;2.30;;;11.70;99.90;;;;;;4955305;28;20035;-89
2021/10/15 12:29:44;;;;;;;3.17;1.70;;;11.70;99.90;;;;;;4955007;28;20394;-90
2021/10/15 12:32:10;;;;;;;2.97;2.20;;;11.80;99.90;;;;;;4956233;28;20627;-89
2021/10/15 12:34:51;;;;;;;3.33;2.30;;;11.90;99.90;;;;;;4940129;28;20113;-90
2021/10/15 12:37:51;;;;;;;5.22;2.30;;;11.90;99.90;;;;;;4936887;29;20382;-89
2021/10/15 12:40:26;;;;;;;2.20;2.00;;;12.00;99.90;;;;;;4954185;28;20066;-89
2021/10/15 12:42:55;;;;;;;4.13;1.77;;;12.00;99.90;;;;;;4951240;28;20039;-88
2021/10/15 12:45:23;;;;;;;2.35;1.63;;;12.10;99.90;;;;;;4949309;28;20035;-89
2021/10/15 12:48:19;;;;;;;3.47;1.95;;;12.20;99.90;;;;;;4936872;28;20081;-88
2021/10/15 12:51:00;;;;;;;2.35;1.90;;;12.20;99.90;;;;;;4936843;28;20035;-87
2021/10/15 12:53:26;;;;;;;2.45;2.25;;;12.30;99.90;;;;;;4905559;28;20027;-89
2021/10/15 12:55:58;;;;;;;3.88;1.92;;;12.40;99.90;;;;;;4933328;28;20827;-89
2021/10/15 12:58:25;;;;;;;2.67;1.73;;;12.40;99.90;;;;;;4947523;28;20034;-90
2021/10/15 13:00:57;;;;;;;3.28;1.80;;;12.50;99.90;;;;;;4922782;28;20042;-86
2021/10/15 13:03:24;;;;;;;4.13;1.70;;;12.60;99.90;;;;;;4952188;28;20130;-90
2021/10/15 13:05:51;;;;;;;3.38;1.80;;;12.60;99.90;;;;;;4947753;28;20058;-90
2021/10/15 13:08:18;;;;;;;3.45;1.60;;;12.50;99.90;;;;;;4951458;28;20035;-89
2021/10/15 13:10:45;;;;;;;3.53;1.80;;;12.50;99.90;;;;;;4931731;28;20500;-88